createdAt,value
2019-01-04T00:01:09.657Z,1028.23
2019-01-04T00:02:19.594Z,1028.23
2019-01-04T00:03:29.526Z,1028.23
2019-01-04T00:04:39.215Z,1028.28
2019-01-04T00:05:48.643Z,1028.26
2019-01-04T00:06:58.116Z,1028.28
2019-01-04T00:08:08.057Z,1028.23
2019-01-04T00:09:18.051Z,1028.28
2019-01-04T00:10:27.993Z,1028.24
2019-01-04T00:11:37.683Z,1028.3
2019-01-04T00:12:47.388Z,1028.29
2019-01-04T00:13:57.075Z,1028.22
2019-01-04T00:15:06.763Z,1028.2
2019-01-04T00:16:16.768Z,1028.16
2019-01-04T00:17:26.722Z,1028.11
2019-01-04T00:18:36.662Z,1028.09
2019-01-04T00:19:46.353Z,1028.08
2019-01-04T00:20:56.122Z,1028.12
2019-01-04T00:22:06.071Z,1028.06
2019-01-04T00:23:15.999Z,1028.04
2019-01-04T00:24:25.943Z,1028.08
2019-01-04T00:25:35.644Z,1028.07
2019-01-04T00:26:45.075Z,1028.08
2019-01-04T00:27:54.264Z,1028.06
2019-01-04T00:29:04.208Z,1028.07
2019-01-04T00:30:13.895Z,1028.06
2019-01-04T00:31:23.333Z,1028.08
2019-01-04T00:32:32.780Z,1028.14
2019-01-04T00:33:42.457Z,1028.1
2019-01-04T00:34:52.385Z,1028.11
2019-01-04T00:36:02.310Z,1028.14
2019-01-04T00:37:12.015Z,1028.13
2019-01-04T00:38:21.950Z,1028.08
2019-01-04T00:39:33.036Z,1028.1
2019-01-04T00:40:43.060Z,1028.13
2019-01-04T00:41:52.244Z,1028.13
2019-01-04T00:43:01.947Z,1028.14
2019-01-04T00:44:11.935Z,1028.17
2019-01-04T00:45:21.867Z,1028.12
2019-01-04T00:46:31.795Z,1028.11
2019-01-04T00:47:41.480Z,1028.1
2019-01-04T00:48:51.417Z,1028.14
2019-01-04T00:50:01.358Z,1028.14
2019-01-04T00:51:11.313Z,1028.08
2019-01-04T00:52:20.997Z,1028.1
2019-01-04T00:53:30.695Z,1028.08
2019-01-04T00:54:40.643Z,1028.11
2019-01-04T00:55:50.583Z,1028.04
2019-01-04T00:57:00.269Z,1028.13
2019-01-04T00:58:10.208Z,1028.09
2019-01-04T00:59:20.139Z,1028.03
2019-01-04T01:00:30.140Z,1028.08
2019-01-04T01:01:40.089Z,1028.01
2019-01-04T01:02:50.027Z,1028.03
2019-01-04T01:03:59.703Z,1028.02
2019-01-04T01:05:09.639Z,1028.03
2019-01-04T01:06:19.583Z,1028.05
2019-01-04T01:07:29.276Z,1028.07
2019-01-04T01:08:39.225Z,1028.02
2019-01-04T01:09:48.661Z,1028.03
2019-01-04T01:10:58.597Z,1028.07
2019-01-04T01:12:08.532Z,1028
2019-01-04T01:13:18.224Z,1028.05
2019-01-04T01:14:27.914Z,1028.05
2019-01-04T01:15:37.593Z,1027.99
2019-01-04T01:16:47.030Z,1027.98
2019-01-04T01:17:57.838Z,1027.97
2019-01-04T01:19:07.770Z,1028.02
2019-01-04T01:20:17.465Z,1028.03
2019-01-04T01:21:27.156Z,1027.99
2019-01-04T01:22:37.097Z,1028.06
2019-01-04T01:23:46.775Z,1028
2019-01-04T01:24:56.445Z,1028.04
2019-01-04T01:26:06.391Z,1028.02
2019-01-04T01:27:16.322Z,1028.03
2019-01-04T01:28:26.254Z,1027.95
2019-01-04T01:29:35.935Z,1028.04
2019-01-04T01:30:45.618Z,1028
2019-01-04T01:31:55.345Z,1028.03
2019-01-04T01:33:05.278Z,1028.08
2019-01-04T01:34:15.214Z,1028.03
2019-01-04T01:35:25.131Z,1028.04
2019-01-04T01:36:34.826Z,1028.09
2019-01-04T01:37:44.528Z,1028.06
2019-01-04T01:38:54.710Z,1028.02
2019-01-04T01:40:04.647Z,1028.04
2019-01-04T01:41:14.598Z,1028.07
2019-01-04T01:42:24.029Z,1028.01
2019-01-04T01:43:33.702Z,1027.95
2019-01-04T01:44:43.637Z,1027.95
2019-01-04T01:45:53.330Z,1027.89
2019-01-04T01:47:03.263Z,1027.89
2019-01-04T01:48:12.962Z,1027.85
2019-01-04T01:49:22.645Z,1027.82
2019-01-04T01:50:32.596Z,1027.86
2019-01-04T01:51:42.582Z,1027.88
2019-01-04T01:52:52.250Z,1027.87
2019-01-04T01:54:01.933Z,1027.9
2019-01-04T01:55:11.624Z,1027.93
2019-01-04T01:56:21.317Z,1027.96
2019-01-04T01:57:30.997Z,1027.88
2019-01-04T01:58:40.934Z,1027.84
2019-01-04T01:59:50.373Z,1027.86
2019-01-04T02:01:00.039Z,1027.86
2019-01-04T02:02:09.729Z,1027.88
2019-01-04T02:03:19.675Z,1027.81
2019-01-04T02:04:29.612Z,1027.79
2019-01-04T02:05:39.587Z,1027.75
2019-01-04T02:06:49.322Z,1027.75
2019-01-04T02:07:58.758Z,1027.74
2019-01-04T02:09:08.724Z,1027.79
2019-01-04T02:10:18.675Z,1027.72
2019-01-04T02:11:28.610Z,1027.8
2019-01-04T02:12:38.560Z,1027.83
2019-01-04T02:13:48.227Z,1027.78
2019-01-04T02:14:57.922Z,1027.76
2019-01-04T02:16:07.877Z,1027.81
2019-01-04T02:17:17.335Z,1027.78
2019-01-04T02:18:27.270Z,1027.71
2019-01-04T02:19:37.200Z,1027.72
2019-01-04T02:20:46.883Z,1027.67
2019-01-04T02:21:56.351Z,1027.66
2019-01-04T02:23:06.278Z,1027.61
2019-01-04T02:24:15.714Z,1027.6
2019-01-04T02:25:25.652Z,1027.57
2019-01-04T02:26:35.355Z,1027.54
2019-01-04T02:27:45.300Z,1027.52
2019-01-04T02:28:55.250Z,1027.54
2019-01-04T02:30:04.680Z,1027.51
2019-01-04T02:31:14.132Z,1027.52
2019-01-04T02:32:24.081Z,1027.51
2019-01-04T02:33:33.795Z,1027.51
2019-01-04T02:34:43.502Z,1027.55
2019-01-04T02:35:53.216Z,1027.54
2019-01-04T02:37:03.163Z,1027.55
2019-01-04T02:38:12.845Z,1027.48
2019-01-04T02:39:22.777Z,1027.44
2019-01-04T02:40:32.715Z,1027.45
2019-01-04T02:41:42.411Z,1027.46
2019-01-04T02:42:52.352Z,1027.41
2019-01-04T02:44:02.035Z,1027.42
2019-01-04T02:45:11.980Z,1027.37
2019-01-04T02:46:21.928Z,1027.36
2019-01-04T02:47:31.896Z,1027.3
2019-01-04T02:48:41.585Z,1027.31
2019-01-04T02:49:51.544Z,1027.31
2019-01-04T02:51:01.234Z,1027.26
2019-01-04T02:52:11.184Z,1027.27
2019-01-04T02:53:20.870Z,1027.2
2019-01-04T02:54:30.549Z,1027.24
2019-01-04T02:55:40.508Z,1027.18
2019-01-04T02:56:50.464Z,1027.25
2019-01-04T02:58:00.415Z,1027.19
2019-01-04T02:59:10.363Z,1027.19
2019-01-04T03:00:20.050Z,1027.15
2019-01-04T03:01:30.002Z,1027.17
2019-01-04T03:02:39.767Z,1027.15
2019-01-04T03:03:49.697Z,1027.15
2019-01-04T03:04:59.636Z,1027.12
2019-01-04T03:06:09.335Z,1027.17
2019-01-04T03:07:19.316Z,1027.18
2019-01-04T03:08:29.270Z,1027.13
2019-01-04T03:09:39.207Z,1027.16
2019-01-04T03:10:49.140Z,1027.17
2019-01-04T03:11:58.852Z,1027.14
2019-01-04T03:13:08.792Z,1027.19
2019-01-04T03:14:17.758Z,1027.09
2019-01-04T03:15:27.484Z,1027.07
2019-01-04T03:16:37.421Z,1027.03
2019-01-04T03:17:47.114Z,1027
2019-01-04T03:18:57.057Z,1026.93
2019-01-04T03:20:06.803Z,1026.86
2019-01-04T03:21:16.244Z,1026.84
2019-01-04T03:22:26.185Z,1026.82
2019-01-04T03:23:36.136Z,1026.87
2019-01-04T03:24:46.079Z,1026.83
2019-01-04T03:25:56.066Z,1026.74
2019-01-04T03:27:06.003Z,1026.79
2019-01-04T03:28:15.940Z,1026.78
2019-01-04T03:29:25.901Z,1026.83
2019-01-04T03:30:35.859Z,1026.78
2019-01-04T03:31:45.603Z,1026.77
2019-01-04T03:32:55.581Z,1026.75
2019-01-04T03:34:05.572Z,1026.74
2019-01-04T03:35:15.337Z,1026.68
2019-01-04T03:36:24.793Z,1026.68
2019-01-04T03:37:34.233Z,1026.61
2019-01-04T03:38:44.181Z,1026.59
2019-01-04T03:39:53.862Z,1026.58
2019-01-04T03:41:03.809Z,1026.57
2019-01-04T03:42:13.250Z,1026.58
2019-01-04T03:43:22.951Z,1026.56
2019-01-04T03:44:32.906Z,1026.46
2019-01-04T03:45:42.590Z,1026.5
2019-01-04T03:46:52.553Z,1026.5
2019-01-04T03:48:02.480Z,1026.51
2019-01-04T03:49:12.428Z,1026.45
2019-01-04T03:50:22.386Z,1026.44
2019-01-04T03:51:32.323Z,1026.4
2019-01-04T03:52:42.010Z,1026.42
2019-01-04T03:53:51.956Z,1026.41
2019-01-04T03:55:01.931Z,1026.35
2019-01-04T03:56:11.892Z,1026.43
2019-01-04T03:57:21.599Z,1026.33
2019-01-04T03:58:31.556Z,1026.28
2019-01-04T03:59:40.992Z,1026.18
2019-01-04T04:00:50.692Z,1026.19
2019-01-04T04:02:00.645Z,1026.21
2019-01-04T04:03:10.583Z,1026.17
2019-01-04T04:04:20.046Z,1026.2
2019-01-04T04:05:29.974Z,1026.22
2019-01-04T04:06:39.912Z,1026.16
2019-01-04T04:07:49.843Z,1026.14
2019-01-04T04:08:59.812Z,1026.12
2019-01-04T04:10:09.752Z,1026.08
2019-01-04T04:11:19.705Z,1026.06
2019-01-04T04:12:29.658Z,1026.06
2019-01-04T04:13:39.605Z,1026.07
2019-01-04T04:14:49.536Z,1026.06
2019-01-04T04:15:59.234Z,1026.02
2019-01-04T04:17:08.916Z,1026.04
2019-01-04T04:18:18.624Z,1026.04
2019-01-04T04:19:28.556Z,1026.01
2019-01-04T04:20:38.480Z,1025.98
2019-01-04T04:21:47.917Z,1025.96
2019-01-04T04:22:57.606Z,1025.99
2019-01-04T04:24:07.566Z,1025.98
2019-01-04T04:25:17.271Z,1025.98
2019-01-04T04:26:26.964Z,1026.01
2019-01-04T04:27:36.659Z,1025.93
2019-01-04T04:28:46.369Z,1025.89
2019-01-04T04:29:56.322Z,1025.88
2019-01-04T04:31:05.994Z,1025.91
2019-01-04T04:32:15.919Z,1025.9
2019-01-04T04:33:25.872Z,1025.97
2019-01-04T04:34:35.552Z,1025.95
2019-01-04T04:35:45.239Z,1025.9
2019-01-04T04:36:55.173Z,1025.95
2019-01-04T04:38:04.876Z,1025.92
2019-01-04T04:39:14.580Z,1025.92
2019-01-04T04:40:24.302Z,1025.95
2019-01-04T04:41:33.735Z,1025.9
2019-01-04T04:42:43.675Z,1025.93
2019-01-04T04:43:53.378Z,1025.9
2019-01-04T04:45:03.328Z,1025.9
2019-01-04T04:46:13.016Z,1025.84
2019-01-04T04:47:22.700Z,1025.79
2019-01-04T04:48:32.393Z,1025.77
2019-01-04T04:49:42.351Z,1025.73
2019-01-04T04:50:52.295Z,1025.78
2019-01-04T04:52:01.982Z,1025.73
2019-01-04T04:53:11.685Z,1025.73
2019-01-04T04:54:21.389Z,1025.7
2019-01-04T04:55:31.327Z,1025.69
2019-01-04T04:56:41.274Z,1025.69
2019-01-04T04:57:51.214Z,1025.68
2019-01-04T04:59:01.144Z,1025.68
2019-01-04T05:00:10.833Z,1025.63
2019-01-04T05:01:20.780Z,1025.67
2019-01-04T05:02:30.773Z,1025.72
2019-01-04T05:03:40.463Z,1025.68
2019-01-04T05:04:50.415Z,1025.68
2019-01-04T05:06:00.152Z,1025.68
2019-01-04T05:07:09.612Z,1025.68
2019-01-04T05:08:19.555Z,1025.7
2019-01-04T05:09:29.496Z,1025.66
2019-01-04T05:10:39.471Z,1025.56
2019-01-04T05:11:49.182Z,1025.64
2019-01-04T05:12:59.115Z,1025.62
2019-01-04T05:14:08.556Z,1025.65
2019-01-04T05:15:18.272Z,1025.71
2019-01-04T05:16:27.952Z,1025.63
2019-01-04T05:17:37.638Z,1025.58
2019-01-04T05:18:47.327Z,1025.55
2019-01-04T05:19:57.265Z,1025.5
2019-01-04T05:21:07.211Z,1025.51
2019-01-04T05:22:17.149Z,1025.54
2019-01-04T05:23:27.082Z,1025.49
2019-01-04T05:24:36.792Z,1025.5
2019-01-04T05:25:46.735Z,1025.5
2019-01-04T05:26:56.421Z,1025.52
2019-01-04T05:28:06.362Z,1025.52
2019-01-04T05:29:16.073Z,1025.56
2019-01-04T05:30:26.013Z,1025.58
2019-01-04T05:31:35.985Z,1025.52
2019-01-04T05:32:45.674Z,1025.6
2019-01-04T05:33:55.380Z,1025.63
2019-01-04T05:35:04.806Z,1025.61
2019-01-04T05:36:14.499Z,1025.61
2019-01-04T05:37:24.195Z,1025.64
2019-01-04T05:38:34.144Z,1025.68
2019-01-04T05:39:43.855Z,1025.68
2019-01-04T05:40:53.280Z,1025.64
2019-01-04T05:42:03.236Z,1025.6
2019-01-04T05:43:12.939Z,1025.48
2019-01-04T05:44:22.916Z,1025.49
2019-01-04T05:45:32.913Z,1025.46
2019-01-04T05:46:42.869Z,1025.4
2019-01-04T05:47:52.819Z,1025.3
2019-01-04T05:49:02.799Z,1025.25
2019-01-04T05:50:12.744Z,1025.22
2019-01-04T05:51:22.436Z,1025.15
2019-01-04T05:52:33.861Z,1025.21
2019-01-04T05:53:43.798Z,1025.19
2019-01-04T05:54:53.490Z,1025.14
2019-01-04T05:56:03.433Z,1025.18
2019-01-04T05:57:13.366Z,1025.15
2019-01-04T05:58:23.321Z,1025.07
2019-01-04T05:59:33.251Z,1025.07
2019-01-04T06:00:42.975Z,1025.11
2019-01-04T06:01:52.921Z,1025
2019-01-04T06:03:02.862Z,1024.97
2019-01-04T06:04:12.844Z,1025
2019-01-04T06:05:22.562Z,1025.05
2019-01-04T06:06:32.251Z,1024.97
2019-01-04T06:07:41.957Z,1024.96
2019-01-04T06:08:51.663Z,1024.98
2019-01-04T06:10:01.616Z,1025.04
2019-01-04T06:11:11.555Z,1025.04
2019-01-04T06:12:21.505Z,1025.05
2019-01-04T06:13:30.956Z,1025.06
2019-01-04T06:14:40.921Z,1025.02
2019-01-04T06:15:50.860Z,1025.03
2019-01-04T06:17:00.799Z,1024.96
2019-01-04T06:18:10.504Z,1025
2019-01-04T06:19:20.197Z,1024.96
2019-01-04T06:20:30.126Z,1024.98
2019-01-04T06:21:40.068Z,1024.9
2019-01-04T06:22:50.005Z,1024.84
2019-01-04T06:23:59.967Z,1024.87
2019-01-04T06:25:09.637Z,1024.84
2019-01-04T06:26:19.342Z,1024.84
2019-01-04T06:27:29.291Z,1024.78
2019-01-04T06:28:39.070Z,1024.76
2019-01-04T06:29:48.522Z,1024.81
2019-01-04T06:30:58.456Z,1024.88
2019-01-04T06:32:08.414Z,1024.9
2019-01-04T06:33:18.359Z,1024.87
2019-01-04T06:34:28.296Z,1024.95
2019-01-04T06:35:37.741Z,1024.9
2019-01-04T06:36:47.454Z,1024.93
2019-01-04T06:37:57.149Z,1024.91
2019-01-04T06:39:07.633Z,1024.87
2019-01-04T06:40:17.564Z,1024.89
2019-01-04T06:41:27.269Z,1024.84
2019-01-04T06:42:36.951Z,1024.84
2019-01-04T06:43:46.647Z,1024.85
2019-01-04T06:44:56.607Z,1024.85
2019-01-04T06:46:05.793Z,1024.82
2019-01-04T06:47:15.728Z,1024.78
2019-01-04T06:48:25.668Z,1024.8
2019-01-04T06:49:35.427Z,1024.78
2019-01-04T06:50:44.867Z,1024.73
2019-01-04T06:51:54.558Z,1024.68
2019-01-04T06:53:04.251Z,1024.79
2019-01-04T06:54:13.932Z,1024.7
2019-01-04T06:55:23.863Z,1024.68
2019-01-04T06:56:33.802Z,1024.67
2019-01-04T06:57:43.769Z,1024.73
2019-01-04T06:58:53.468Z,1024.74
2019-01-04T07:00:03.157Z,1024.7
2019-01-04T07:01:12.845Z,1024.72
2019-01-04T07:02:22.779Z,1024.72
2019-01-04T07:03:32.711Z,1024.72
2019-01-04T07:04:42.656Z,1024.71
2019-01-04T07:05:52.348Z,1024.64
2019-01-04T07:07:02.025Z,1024.64
2019-01-04T07:08:11.956Z,1024.72
2019-01-04T07:09:21.894Z,1024.69
2019-01-04T07:10:31.839Z,1024.68
2019-01-04T07:11:41.800Z,1024.69
2019-01-04T07:12:52.199Z,1024.67
2019-01-04T07:14:01.624Z,1024.67
2019-01-04T07:15:11.310Z,1024.63
2019-01-04T07:16:20.983Z,1024.66
2019-01-04T07:17:30.926Z,1024.69
2019-01-04T07:18:40.862Z,1024.53
2019-01-04T07:19:50.813Z,1024.5
2019-01-04T07:21:00.492Z,1024.58
2019-01-04T07:22:10.424Z,1024.58
2019-01-04T07:23:20.122Z,1024.43
2019-01-04T07:24:29.803Z,1024.4
2019-01-04T07:25:39.746Z,1024.36
2019-01-04T07:26:49.688Z,1024.37
2019-01-04T07:27:58.908Z,1024.49
2019-01-04T07:29:08.607Z,1024.32
2019-01-04T07:30:18.572Z,1024.28
2019-01-04T07:31:28.515Z,1024.3
2019-01-04T07:32:38.191Z,1024.23
2019-01-04T07:33:47.366Z,1024.27
2019-01-04T07:34:57.314Z,1024.33
2019-01-04T07:36:07.266Z,1024.36
2019-01-04T07:37:17.196Z,1024.36
2019-01-04T07:38:26.895Z,1024.3
2019-01-04T07:39:36.822Z,1024.33
2019-01-04T07:40:46.752Z,1024.24
2019-01-04T07:41:56.441Z,1024.39
2019-01-04T07:43:05.881Z,1024.39
2019-01-04T07:44:21.511Z,1024.36
2019-01-04T07:45:31.191Z,1024.27
2019-01-04T07:46:40.890Z,1024.39
2019-01-04T07:47:51.677Z,1024.36
2019-01-04T07:49:01.628Z,1024.28
2019-01-04T07:50:11.560Z,1024.38
2019-01-04T07:51:21.247Z,1024.36
2019-01-04T07:52:31.190Z,1024.25
2019-01-04T07:53:40.870Z,1024.35
2019-01-04T07:54:50.798Z,1024.18
2019-01-04T07:56:00.653Z,1024.2
2019-01-04T07:57:10.398Z,1024.17
2019-01-04T07:58:20.336Z,1024.19
2019-01-04T07:59:30.031Z,1024.21
2019-01-04T08:00:39.951Z,1024.21
2019-01-04T08:01:49.888Z,1024.15
2019-01-04T08:02:59.571Z,1024.1
2019-01-04T08:04:09.516Z,1024.06
2019-01-04T08:05:19.445Z,1024.12
2019-01-04T08:06:29.376Z,1024.1
2019-01-04T08:07:39.310Z,1024.08
2019-01-04T08:08:49.016Z,1024.03
2019-01-04T08:09:58.729Z,1024.04
2019-01-04T08:11:08.431Z,1024.01
2019-01-04T08:12:18.118Z,1024
2019-01-04T08:13:27.814Z,1023.96
2019-01-04T08:14:37.752Z,1024.07
2019-01-04T08:15:47.435Z,1024.04
2019-01-04T08:16:57.121Z,1023.91
2019-01-04T08:18:06.805Z,1023.88
2019-01-04T08:19:15.999Z,1023.96
2019-01-04T08:20:25.696Z,1023.82
2019-01-04T08:21:35.624Z,1023.84
2019-01-04T08:22:45.565Z,1023.87
2019-01-04T08:23:55.238Z,1023.83
2019-01-04T08:25:05.180Z,1023.86
2019-01-04T08:26:14.645Z,1023.84
2019-01-04T08:27:24.582Z,1023.79
2019-01-04T08:28:34.274Z,1023.8
2019-01-04T08:29:43.962Z,1023.79
2019-01-04T08:30:53.893Z,1023.75
2019-01-04T08:32:03.581Z,1023.72
2019-01-04T08:33:13.509Z,1023.73
2019-01-04T08:34:23.456Z,1023.8
2019-01-04T08:35:33.380Z,1023.72
2019-01-04T08:36:43.060Z,1023.73
2019-01-04T08:37:53.002Z,1023.68
2019-01-04T08:39:02.956Z,1023.64
2019-01-04T08:40:12.374Z,1023.72
2019-01-04T08:41:22.054Z,1023.71
2019-01-04T08:42:31.738Z,1023.72
2019-01-04T08:43:42.664Z,1023.66
2019-01-04T08:44:52.368Z,1023.67
2019-01-04T08:46:02.056Z,1023.67
2019-01-04T08:47:11.981Z,1023.74
2019-01-04T08:48:21.922Z,1023.67
2019-01-04T08:49:31.876Z,1023.64
2019-01-04T08:50:41.318Z,1023.57
2019-01-04T08:51:51.260Z,1023.66
2019-01-04T08:53:00.950Z,1023.73
2019-01-04T08:54:10.886Z,1023.74
2019-01-04T08:55:20.804Z,1023.73
2019-01-04T08:56:30.729Z,1023.61
2019-01-04T08:57:41.528Z,1023.58
2019-01-04T08:58:51.218Z,1023.6
2019-01-04T09:00:01.146Z,1023.67
2019-01-04T09:01:10.826Z,1023.69
2019-01-04T09:02:20.256Z,1023.69
2019-01-04T09:03:30.180Z,1023.58
2019-01-04T09:04:39.614Z,1023.51
2019-01-04T09:05:49.562Z,1023.51
2019-01-04T09:06:59.508Z,1023.51
2019-01-04T09:08:09.468Z,1023.4
2019-01-04T09:09:19.407Z,1023.51
2019-01-04T09:10:29.352Z,1023.37
2019-01-04T09:11:39.082Z,1023.34
2019-01-04T09:12:49.024Z,1023.32
2019-01-04T09:13:58.705Z,1023.32
2019-01-04T09:15:08.667Z,1023.32
2019-01-04T09:16:18.358Z,1023.21
2019-01-04T09:17:28.308Z,1023.23
2019-01-04T09:18:38.311Z,1023.31
2019-01-04T09:19:48.258Z,1023.13
2019-01-04T09:20:57.744Z,1023.07
2019-01-04T09:22:07.433Z,1023.08
2019-01-04T09:23:18.654Z,1023.1
2019-01-04T09:24:28.594Z,1023.11
2019-01-04T09:25:38.297Z,1023.21
2019-01-04T09:26:48.246Z,1023.1
2019-01-04T09:27:58.202Z,1023.04
2019-01-04T09:29:08.146Z,1022.99
2019-01-04T09:30:17.588Z,1022.86
2019-01-04T09:31:27.542Z,1023
2019-01-04T09:32:37.484Z,1023.01
2019-01-04T09:33:47.178Z,1023.03
2019-01-04T09:34:57.597Z,1022.99
2019-01-04T09:36:07.533Z,1022.94
2019-01-04T09:37:16.996Z,1022.89
2019-01-04T09:38:26.673Z,1022.9
2019-01-04T09:39:36.616Z,1022.95
2019-01-04T09:40:46.308Z,1022.92
2019-01-04T09:41:56.007Z,1022.79
2019-01-04T09:43:05.939Z,1022.85
2019-01-04T09:44:15.618Z,1022.83
2019-01-04T09:45:25.562Z,1022.73
2019-01-04T09:46:35.524Z,1022.75
2019-01-04T09:47:45.226Z,1022.64
2019-01-04T09:48:55.163Z,1022.6
2019-01-04T09:50:04.614Z,1022.68
2019-01-04T09:51:14.057Z,1022.79
2019-01-04T09:52:23.990Z,1022.71
2019-01-04T09:53:33.916Z,1022.62
2019-01-04T09:54:43.602Z,1022.52
2019-01-04T09:55:53.282Z,1022.52
2019-01-04T09:57:02.960Z,1022.42
2019-01-04T09:58:12.408Z,1022.35
2019-01-04T09:59:21.853Z,1022.38
2019-01-04T10:00:31.794Z,1022.35
2019-01-04T10:01:41.746Z,1022.45
2019-01-04T10:02:51.435Z,1022.23
2019-01-04T10:04:01.387Z,1022.48
2019-01-04T10:05:11.330Z,1022.24
2019-01-04T10:06:21.278Z,1022.31
2019-01-04T10:07:31.225Z,1022.65
2019-01-04T10:08:44.836Z,1022.3
2019-01-04T10:09:54.670Z,1022.16
2019-01-04T10:11:04.616Z,1022.32
2019-01-04T10:12:14.070Z,1022.22
2019-01-04T10:13:24.011Z,1022.25
2019-01-04T10:14:33.944Z,1022.02
2019-01-04T10:15:43.637Z,1022.3
2019-01-04T10:16:53.324Z,1022.39
2019-01-04T10:18:03.258Z,1022.1
2019-01-04T10:19:12.953Z,1022.09
2019-01-04T10:20:22.638Z,1022.21
2019-01-04T10:21:32.322Z,1022.08
2019-01-04T10:22:42.008Z,1022.08
2019-01-04T10:23:51.933Z,1022.11
2019-01-04T10:25:01.888Z,1022.04
2019-01-04T10:26:11.831Z,1021.96
2019-01-04T10:27:21.778Z,1022.01
2019-01-04T10:28:31.710Z,1021.82
2019-01-04T10:29:41.660Z,1022.11
2019-01-04T10:30:51.365Z,1021.77
2019-01-04T10:32:01.335Z,1021.72
2019-01-04T10:33:11.018Z,1021.79
2019-01-04T10:34:20.724Z,1021.62
2019-01-04T10:35:30.688Z,1021.75
2019-01-04T10:36:40.374Z,1021.55
2019-01-04T10:37:50.100Z,1021.49
2019-01-04T10:39:00.043Z,1021.41
2019-01-04T10:40:11.099Z,1021.36
2019-01-04T10:41:20.994Z,1021.51
2019-01-04T10:42:30.939Z,1021.33
2019-01-04T10:43:40.629Z,1021.32
2019-01-04T10:44:50.641Z,1021.33
2019-01-04T10:46:00.088Z,1021.3
2019-01-04T10:47:10.041Z,1021.31
2019-01-04T10:48:19.990Z,1021.24
2019-01-04T10:49:29.705Z,1021.17
2019-01-04T10:50:39.645Z,1021.1
2019-01-04T10:51:49.602Z,1021.02
2019-01-04T10:52:59.057Z,1021.02
2019-01-04T10:54:08.507Z,1021.11
2019-01-04T10:55:18.460Z,1021
2019-01-04T10:56:28.402Z,1020.92
2019-01-04T10:57:37.843Z,1020.89
2019-01-04T10:58:47.801Z,1020.79
2019-01-04T10:59:57.781Z,1020.85
2019-01-04T11:01:07.538Z,1020.84
2019-01-04T11:02:17.222Z,1020.81
2019-01-04T11:03:26.928Z,1020.8
2019-01-04T11:04:36.867Z,1020.75
2019-01-04T11:05:46.557Z,1020.77
2019-01-04T11:06:56.259Z,1020.76
2019-01-04T11:08:05.964Z,1020.73
2019-01-04T11:09:15.900Z,1020.64
2019-01-04T11:10:25.594Z,1020.75
2019-01-04T11:11:35.294Z,1020.71
2019-01-04T11:12:45.221Z,1020.58
2019-01-04T11:13:54.707Z,1020.55
2019-01-04T11:15:04.145Z,1020.58
2019-01-04T11:16:13.811Z,1020.42
2019-01-04T11:17:23.741Z,1020.39
2019-01-04T11:18:33.697Z,1020.36
2019-01-04T11:19:43.389Z,1020.4
2019-01-04T11:20:53.085Z,1020.47
2019-01-04T11:22:02.811Z,1020.32
2019-01-04T11:23:12.756Z,1020.27
2019-01-04T11:24:22.701Z,1020.24
2019-01-04T11:25:32.429Z,1020.13
2019-01-04T11:26:42.109Z,1020.29
2019-01-04T11:27:52.051Z,1020.21
2019-01-04T11:29:01.973Z,1020.24
2019-01-04T11:30:11.669Z,1020.12
2019-01-04T11:31:21.360Z,1020.17
2019-01-04T11:32:31.053Z,1020.05
2019-01-04T11:33:40.732Z,1020.17
2019-01-04T11:34:50.678Z,1020.1
2019-01-04T11:36:00.663Z,1020.27
2019-01-04T11:37:10.347Z,1020.13
2019-01-04T11:38:20.283Z,1020
2019-01-04T11:39:29.970Z,1019.99
2019-01-04T11:40:39.913Z,1019.91
2019-01-04T11:41:49.857Z,1019.8
2019-01-04T11:42:59.816Z,1019.87
2019-01-04T11:44:09.497Z,1019.69
2019-01-04T11:45:19.190Z,1019.8
2019-01-04T11:46:28.885Z,1019.63
2019-01-04T11:47:38.826Z,1019.8
2019-01-04T11:48:48.523Z,1019.7
2019-01-04T11:49:58.211Z,1019.51
2019-01-04T11:51:07.903Z,1019.4
2019-01-04T11:52:17.588Z,1019.54
2019-01-04T11:53:31.756Z,1019.33
2019-01-04T11:54:42.927Z,1019.28
2019-01-04T11:55:52.871Z,1019.26
2019-01-04T11:57:02.564Z,1019.31
2019-01-04T11:58:12.499Z,1019.34
2019-01-04T11:59:22.439Z,1019.24
2019-01-04T12:00:32.381Z,1019.38
2019-01-04T12:01:42.339Z,1019.32
2019-01-04T12:02:52.298Z,1019.23
2019-01-04T12:04:02.187Z,1019.2
2019-01-04T12:05:11.712Z,1019.28
2019-01-04T12:06:21.397Z,1019.22
2019-01-04T12:07:32.500Z,1019.25
2019-01-04T12:08:42.419Z,1019.43
2019-01-04T12:09:52.366Z,1019.13
2019-01-04T12:11:02.314Z,1019.18
2019-01-04T12:12:12.006Z,1018.99
2019-01-04T12:13:21.687Z,1019.19
2019-01-04T12:14:31.127Z,1019.06
2019-01-04T12:15:46.530Z,1019.1
2019-01-04T12:16:56.224Z,1019.17
2019-01-04T12:18:06.160Z,1019.2
2019-01-04T12:19:15.598Z,1019.17
2019-01-04T12:20:25.547Z,1019.21
2019-01-04T12:21:35.492Z,1019.23
2019-01-04T12:22:45.458Z,1019.25
2019-01-04T12:23:55.181Z,1019.34
2019-01-04T12:25:04.870Z,1019.5
2019-01-04T12:26:14.575Z,1019.51
2019-01-04T12:27:24.528Z,1019.51
2019-01-04T12:28:34.269Z,1019.41
2019-01-04T12:29:43.969Z,1019.7
2019-01-04T12:30:53.161Z,1019.53
2019-01-04T12:32:03.110Z,1019.44
2019-01-04T12:33:12.807Z,1019.44
2019-01-04T12:34:22.477Z,1019.47
2019-01-04T12:35:32.160Z,1019.4
2019-01-04T12:36:41.855Z,1019.26
2019-01-04T12:37:51.546Z,1019.44
2019-01-04T12:39:01.258Z,1019.4
2019-01-04T12:40:10.963Z,1019.32
2019-01-04T12:41:20.931Z,1019.3
2019-01-04T12:42:30.881Z,1019.32
2019-01-04T12:43:40.825Z,1019.28
2019-01-04T12:44:55.455Z,1019.28
2019-01-04T12:46:05.458Z,1019.23
2019-01-04T12:47:15.437Z,1019.19
2019-01-04T12:48:26.471Z,1019.18
2019-01-04T12:49:36.420Z,1019.37
2019-01-04T12:50:46.355Z,1019.31
2019-01-04T12:51:55.796Z,1019.41
2019-01-04T12:53:05.725Z,1019.39
2019-01-04T12:54:15.672Z,1019.39
2019-01-04T12:55:25.628Z,1019.49
2019-01-04T12:56:35.577Z,1019.45
2019-01-04T12:57:45.261Z,1019.4
2019-01-04T12:58:54.951Z,1019.37
2019-01-04T13:00:04.389Z,1019.38
2019-01-04T13:01:14.341Z,1019.42
2019-01-04T13:02:24.033Z,1019.24
2019-01-04T13:03:34.002Z,1019.27
2019-01-04T13:04:43.929Z,1019.32
2019-01-04T13:05:53.380Z,1019.46
2019-01-04T13:07:03.078Z,1019.42
2019-01-04T13:08:13.043Z,1019.26
2019-01-04T13:09:22.990Z,1019.32
2019-01-04T13:10:32.692Z,1019.32
2019-01-04T13:11:43.127Z,1019.41
2019-01-04T13:12:52.812Z,1019.28
2019-01-04T13:14:02.763Z,1019.34
2019-01-04T13:15:12.722Z,1019.36
2019-01-04T13:16:22.716Z,1019.37
2019-01-04T13:17:32.678Z,1019.3
2019-01-04T13:18:42.626Z,1019.3
2019-01-04T13:19:52.069Z,1019.37
2019-01-04T13:21:02.007Z,1019.26
2019-01-04T13:22:11.451Z,1019.25
2019-01-04T13:23:21.401Z,1019.25
2019-01-04T13:24:31.356Z,1019.19
2019-01-04T13:25:41.043Z,1019.27
2019-01-04T13:26:50.718Z,1019.17
2019-01-04T13:28:00.419Z,1019.17
2019-01-04T13:29:10.417Z,1019.25
2019-01-04T13:30:20.114Z,1019.15
2019-01-04T13:31:29.809Z,1019.04
2019-01-04T13:32:39.754Z,1019.16
2019-01-04T13:33:49.697Z,1019
2019-01-04T13:34:59.203Z,1019.04
2019-01-04T13:36:09.138Z,1019.1
2019-01-04T13:37:18.836Z,1019.18
2019-01-04T13:38:28.793Z,1019.01
2019-01-04T13:39:38.749Z,1019.12
2019-01-04T13:40:48.442Z,1019.01
2019-01-04T13:41:58.397Z,1018.97
2019-01-04T13:43:08.090Z,1018.99
2019-01-04T13:44:17.543Z,1018.86
2019-01-04T13:45:27.296Z,1018.86
2019-01-04T13:46:37.238Z,1018.83
2019-01-04T13:47:46.939Z,1018.84
2019-01-04T13:48:56.625Z,1018.87
2019-01-04T13:50:06.575Z,1018.84
2019-01-04T13:51:16.272Z,1018.8
2019-01-04T13:52:26.235Z,1018.82
2019-01-04T13:53:36.178Z,1018.85
2019-01-04T13:54:45.884Z,1018.86
2019-01-04T13:55:55.580Z,1018.91
2019-01-04T13:57:05.522Z,1018.89
2019-01-04T13:58:15.463Z,1018.82
2019-01-04T13:59:25.407Z,1018.86
2019-01-04T14:00:35.356Z,1018.77
2019-01-04T14:01:45.294Z,1018.76
2019-01-04T14:02:55.379Z,1018.73
2019-01-04T14:04:05.076Z,1018.74
2019-01-04T14:05:15.024Z,1018.74
2019-01-04T14:06:24.979Z,1018.59
2019-01-04T14:07:34.923Z,1018.63
2019-01-04T14:08:44.902Z,1018.7
2019-01-04T14:09:54.854Z,1018.59